Time;durP1;ratioP1;P1;durP2;ratioP2;P2;SDS_P1;SDS_P2;PMS_P1;PMS_P2;Temp;Humidity;BMP_temperature;BMP_pressure;BME280_temperature;BME280_humidity;BME280_pressure;Samples;Min_cycle;Max_cycle;Signal;HPM_P1;HPM_P2
2022/03/08 00:00:44;;;;;;;17.10;9.00;;;;;;;-0.11;78.76;98852.63;105622;1280;137802;-73
2022/03/08 00:03:10;;;;;;;19.10;9.10;;;;;;;-0.11;78.81;98857.15;105803;1280;25245;-73
2022/03/08 00:05:37;;;;;;;16.00;8.90;;;;;;;-0.11;78.75;98854.91;105621;1281;138082;-73
2022/03/08 00:08:03;;;;;;;19.90;9.40;;;;;;;-0.09;78.39;98855.23;105919;1280;24289;-73
2022/03/08 00:10:29;;;;;;;23.30;10.10;;;;;;;-0.08;78.65;98852.70;105704;1280;24312;-73
2022/03/08 00:12:56;;;;;;;19.60;9.90;;;;;;;-0.08;78.48;98856.91;105565;1280;137905;-74
2022/03/08 00:15:28;;;;;;;25.10;11.00;;;;;;;-0.09;78.42;98856.12;105623;1281;22568;-74
2022/03/08 00:17:56;;;;;;;22.00;9.60;;;;;;;-0.08;78.56;98859.27;105646;1281;138625;-74
2022/03/08 00:20:23;;;;;;;20.70;10.20;;;;;;;-0.09;78.68;98859.55;105705;1281;22578;-74
2022/03/08 00:22:49;;;;;;;18.60;9.30;;;;;;;-0.10;78.46;98860.23;105817;1281;137926;-74
2022/03/08 00:25:16;;;;;;;24.70;11.10;;;;;;;-0.13;78.68;98861.79;105879;1280;22572;-74
2022/03/08 00:27:46;;;;;;;21.60;10.60;;;;;;;-0.14;78.46;98862.94;105750;1281;24295;-74
2022/03/08 00:30:18;;;;;;;19.70;9.70;;;;;;;-0.14;78.94;98867.92;105771;1280;138060;-75
2022/03/08 00:32:47;;;;;;;22.60;9.50;;;;;;;-0.17;78.92;98869.73;105793;1281;22573;-72
2022/03/08 00:35:13;;;;;;;23.00;11.20;;;;;;;-0.18;79.09;98871.80;105602;1281;139471;-73
2022/03/08 00:37:41;;;;;;;24.00;10.60;;;;;;;-0.20;79.21;98870.55;105784;1282;23280;-73
2022/03/08 00:40:09;;;;;;;15.60;8.00;;;;;;;-0.21;79.27;98871.50;105724;1281;24447;-73
2022/03/08 00:42:36;;;;;;;19.10;10.00;;;;;;;-0.23;79.37;98872.66;105785;1281;138292;-73
2022/03/08 00:45:07;;;;;;;21.00;9.90;;;;;;;-0.26;79.49;98873.65;106005;1280;25392;-73
2022/03/08 00:47:35;;;;;;;15.60;7.80;;;;;;;-0.27;79.61;98874.15;105726;1281;138674;-73
2022/03/08 00:50:03;;;;;;;17.20;7.80;;;;;;;-0.26;79.32;98872.29;105789;1280;24379;-73
2022/03/08 00:52:30;;;;;;;17.10;9.30;;;;;;;-0.28;79.67;98869.23;105846;1280;25280;-73
2022/03/08 00:54:56;;;;;;;22.40;9.00;;;;;;;-0.30;79.48;98862.58;105765;1281;137699;-73
2022/03/08 00:57:22;;;;;;;17.00;7.90;;;;;;;-0.33;79.61;98862.61;105721;1281;22557;-72
2022/03/08 00:59:49;;;;;;;15.70;7.40;;;;;;;-0.33;79.59;98863.89;105666;1281;137913;-72
2022/03/08 01:02:15;;;;;;;17.60;8.00;;;;;;;-0.34;79.63;98867.39;105707;1281;22566;-74
2022/03/08 01:04:41;;;;;;;19.60;8.60;;;;;;;-0.36;79.88;98864.45;105767;1280;22547;-75
2022/03/08 01:07:08;;;;;;;15.10;7.60;;;;;;;-0.40;79.87;98863.94;105775;1281;138011;-73
2022/03/08 01:09:35;;;;;;;13.60;6.60;;;;;;;-0.42;80.00;98863.96;105717;1284;22650;-73
2022/03/08 01:12:03;;;;;;;18.40;8.30;;;;;;;-0.44;80.26;98860.66;105695;1281;137851;-73
2022/03/08 01:14:30;;;;;;;17.00;7.40;;;;;;;-0.47;80.10;98862.36;105750;1281;22562;-73
2022/03/08 01:16:56;;;;;;;15.00;6.80;;;;;;;-0.50;80.17;98869.70;105744;1281;138885;-73
2022/03/08 01:19:23;;;;;;;14.40;6.70;;;;;;;-0.54;80.41;98866.52;105811;1281;22566;-74
2022/03/08 01:21:49;;;;;;;15.50;7.60;;;;;;;-0.56;80.83;98862.94;105857;1281;25329;-74
2022/03/08 01:24:16;;;;;;;15.50;7.60;;;;;;;-0.59;80.69;98866.98;105613;1281;137580;-74
2022/03/08 01:26:43;;;;;;;13.60;6.70;;;;;;;-0.62;80.54;98868.04;105896;1281;23943;-74
2022/03/08 01:29:09;;;;;;;15.90;7.40;;;;;;;-0.65;80.77;98867.48;105682;1280;138012;-74
2022/03/08 01:31:36;;;;;;;15.20;6.80;;;;;;;-0.68;80.98;98868.36;105727;1281;25382;-74
2022/03/08 01:34:03;;;;;;;13.00;6.70;;;;;;;-0.70;80.99;98867.81;105797;1280;22628;-74
2022/03/08 01:36:29;;;;;;;16.80;7.50;;;;;;;-0.71;80.95;98864.23;105579;1281;137789;-74
2022/03/08 01:38:56;;;;;;;13.40;7.40;;;;;;;-0.74;81.24;98864.40;105756;1280;23921;-74
2022/03/08 01:41:23;;;;;;;19.20;8.50;;;;;;;-0.78;81.21;98865.95;105620;1281;138599;-74
2022/03/08 01:43:49;;;;;;;13.80;6.90;;;;;;;-0.80;81.18;98861.73;105834;1280;22612;-74
2022/03/08 01:46:16;;;;;;;16.70;7.90;;;;;;;-0.82;81.39;98858.13;105796;1281;24234;-74
2022/03/08 01:48:43;;;;;;;13.30;7.60;;;;;;;-0.88;81.55;98850.64;105585;1281;137510;-74
2022/03/08 01:51:09;;;;;;;15.10;8.30;;;;;;;-0.94;81.88;98856.28;105853;1281;22548;-74
2022/03/08 01:53:39;;;;;;;19.20;7.30;;;;;;;-0.99;81.70;98850.38;105665;1281;138417;-74
2022/03/08 01:56:07;;;;;;;15.30;7.20;;;;;;;-1.03;81.80;98847.99;105868;1281;25379;-74
2022/03/08 01:58:34;;;;;;;17.50;7.60;;;;;;;-1.08;81.93;98844.19;105865;1281;25432;-74
2022/03/08 02:01:00;;;;;;;12.20;6.20;;;;;;;-1.13;82.04;98844.04;105726;1281;138233;-74
2022/03/08 02:03:27;;;;;;;16.40;6.60;;;;;;;-1.18;82.11;98839.88;105794;1281;23600;-74
2022/03/08 02:05:53;;;;;;;12.90;6.00;;;;;;;-1.20;82.20;98839.09;105661;1281;139081;-74
2022/03/08 02:08:19;;;;;;;13.40;7.00;;;;;;;-1.24;82.43;98837.88;105796;1281;24233;-74
2022/03/08 02:10:46;;;;;;;17.70;6.40;;;;;;;-1.29;82.40;98834.98;105916;1281;22593;-74
2022/03/08 02:13:12;;;;;;;13.30;6.50;;;;;;;-1.33;82.65;98838.94;105643;1281;137878;-74
2022/03/08 02:15:39;;;;;;;18.10;7.60;;;;;;;-1.37;82.64;98839.85;105812;1281;22592;-74
2022/03/08 02:18:05;;;;;;;15.10;6.90;;;;;;;-1.39;82.79;98843.27;105585;1281;138532;-74
2022/03/08 02:20:34;;;;;;;13.30;6.80;;;;;;;-1.42;82.93;98840.83;105773;1281;24301;-74
2022/03/08 02:23:00;;;;;;;15.10;7.30;;;;;;;-1.46;83.16;98846.01;105732;1281;137872;-74
2022/03/08 02:25:26;;;;;;;14.20;7.80;;;;;;;-1.49;83.21;98844.91;105819;1280;25493;-74
2022/03/08 02:27:56;;;;;;;11.60;5.50;;;;;;;-1.51;83.47;98842.74;105781;1281;26622;-74
2022/03/08 02:30:24;;;;;;;12.40;6.00;;;;;;;-1.54;83.63;98847.14;105475;1281;138326;-73
2022/03/08 02:32:52;;;;;;;14.00;7.20;;;;;;;-1.56;83.54;98847.02;105552;1280;22835;-73
2022/03/08 02:35:24;;;;;;;16.50;7.70;;;;;;;-1.58;83.59;98849.20;105735;1281;138194;-72
2022/03/08 02:37:52;;;;;;;13.50;6.80;;;;;;;-1.60;83.66;98846.92;105830;1281;24381;-72
2022/03/08 02:40:25;;;;;;;11.40;5.60;;;;;;;-1.61;83.56;98846.25;105863;1281;22793;-72
2022/03/08 02:42:52;;;;;;;16.40;6.70;;;;;;;-1.62;83.79;98852.83;105727;1281;137627;-72
2022/03/08 02:45:33;;;;;;;13.40;6.40;;;;;;;-1.65;83.80;98853.52;105753;1281;22576;-74
2022/03/08 02:48:00;;;;;;;15.70;7.10;;;;;;;-1.67;83.76;98858.36;105661;1281;137785;-73
2022/03/08 02:50:27;;;;;;;14.10;7.10;;;;;;;-1.69;83.80;98854.64;105834;1281;23228;-72
2022/03/08 02:52:55;;;;;;;12.90;6.50;;;;;;;-1.69;83.92;98855.02;105705;1281;138288;-74
2022/03/08 02:55:27;;;;;;;15.60;6.00;;;;;;;-1.71;83.93;98853.23;105663;1280;25008;-75
2022/03/08 02:57:55;;;;;;;16.10;6.90;;;;;;;-1.74;84.07;98854.76;105614;1280;22586;-74
2022/03/08 03:00:23;;;;;;;18.30;7.50;;;;;;;-1.77;84.22;98849.36;105652;1280;138138;-73
2022/03/08 03:02:51;;;;;;;14.40;7.30;;;;;;;-1.80;84.23;98849.14;105762;1281;25388;-73
2022/03/08 03:05:17;;;;;;;14.40;7.00;;;;;;;-1.82;84.50;98847.05;105528;1281;138085;-74
2022/03/08 03:07:44;;;;;;;15.00;7.00;;;;;;;-1.83;84.55;98852.33;105822;1281;24241;-73
2022/03/08 03:10:16;;;;;;;16.60;7.30;;;;;;;-1.85;84.39;98855.52;105866;1280;23016;-73
2022/03/08 03:12:43;;;;;;;13.50;6.90;;;;;;;-1.87;84.52;98859.80;105774;1281;137899;-74
2022/03/08 03:15:12;;;;;;;12.60;7.90;;;;;;;-1.87;84.52;98862.30;105684;1281;25281;-74
2022/03/08 03:17:39;;;;;;;17.20;7.90;;;;;;;-1.89;84.48;98868.91;105742;1280;138700;-73
2022/03/08 03:20:08;;;;;;;14.00;7.70;;;;;;;-1.92;84.74;98869.16;105639;1280;22653;-74
2022/03/08 03:22:35;;;;;;;14.90;6.90;;;;;;;-1.94;84.68;98872.19;105870;1281;24218;-71
2022/03/08 03:25:16;;;;;;;17.70;8.90;;;;;;;-1.97;84.69;98878.20;105724;1280;138930;-73
2022/03/08 03:27:43;;;;;;;17.80;8.60;;;;;;;-1.99;84.58;98879.69;105754;1281;22729;-73
2022/03/08 03:30:13;;;;;;;15.40;7.80;;;;;;;-2.00;84.73;98881.55;105726;1281;138475;-73
2022/03/08 03:32:40;;;;;;;16.60;8.20;;;;;;;-2.03;84.69;98882.39;105845;1280;22721;-74
2022/03/08 03:35:08;;;;;;;13.70;7.50;;;;;;;-2.06;84.90;98882.86;105745;1280;137874;-73
2022/03/08 03:37:35;;;;;;;19.50;9.20;;;;;;;-2.08;84.70;98891.63;105785;1281;22729;-73
2022/03/08 03:40:01;;;;;;;18.50;9.90;;;;;;;-2.09;84.70;98891.88;105859;1280;22557;-73
2022/03/08 03:42:28;;;;;;;20.70;9.30;;;;;;;-2.09;84.71;98894.04;105756;1280;138673;-73
2022/03/08 03:44:54;;;;;;;20.80;9.20;;;;;;;-2.09;84.77;98895.80;105780;1280;25319;-73
2022/03/08 03:47:20;;;;;;;15.80;8.70;;;;;;;-2.08;84.90;98897.88;105704;1280;137661;-73
2022/03/08 03:49:47;;;;;;;17.40;8.70;;;;;;;-2.05;84.91;98903.05;105784;1280;22673;-73
2022/03/08 03:52:13;;;;;;;19.70;10.40;;;;;;;-2.01;85.07;98901.98;105830;1280;22721;-72
2022/03/08 03:54:39;;;;;;;19.30;10.70;;;;;;;-1.98;84.79;98906.25;105829;1280;139328;-73
2022/03/08 03:57:05;;;;;;;20.00;10.70;;;;;;;-1.93;84.60;98911.83;105872;1280;22567;-73
2022/03/08 03:59:32;;;;;;;15.20;9.60;;;;;;;-1.88;84.42;98908.63;105799;1280;137879;-72
2022/03/08 04:01:58;;;;;;;21.00;9.90;;;;;;;-1.84;84.22;98911.64;105983;1280;22580;-72
2022/03/08 04:04:24;;;;;;;19.20;10.40;;;;;;;-1.80;84.46;98914.48;105876;1280;23048;-72
2022/03/08 04:06:51;;;;;;;17.00;9.10;;;;;;;-1.78;84.04;98917.42;105816;1280;137714;-73
2022/03/08 04:09:17;;;;;;;21.50;10.40;;;;;;;-1.78;83.96;98920.48;105976;1280;25405;-73
2022/03/08 04:11:44;;;;;;;20.10;10.80;;;;;;;-1.78;83.72;98915.81;105725;1280;138351;-72
2022/03/08 04:14:10;;;;;;;20.90;10.40;;;;;;;-1.78;83.66;98917.79;105769;1280;23923;-72
2022/03/08 04:16:36;;;;;;;21.50;10.40;;;;;;;-1.80;83.36;98918.20;106005;1280;23049;-73
2022/03/08 04:19:02;;;;;;;15.80;8.90;;;;;;;-1.84;83.52;98922.35;105811;1280;138395;-72
2022/03/08 04:21:29;;;;;;;15.50;8.70;;;;;;;-1.89;83.65;98923.20;105982;1280;24447;-72
2022/03/08 04:23:55;;;;;;;17.40;8.70;;;;;;;-1.95;83.88;98926.79;105926;1280;137578;-73
2022/03/08 04:26:21;;;;;;;21.60;10.40;;;;;;;-2.01;84.30;98924.51;105805;1281;22563;-72
2022/03/08 04:29:05;;;;;;;19.50;10.00;;;;;;;-2.04;84.61;98928.61;105825;1281;138585;-72
2022/03/08 04:31:32;;;;;;;17.60;9.00;;;;;;;-2.06;84.68;98931.13;105922;1280;25604;-72
2022/03/08 04:33:58;;;;;;;17.50;9.70;;;;;;;-2.07;84.82;98932.98;105679;1281;22773;-72
2022/03/08 04:36:25;;;;;;;16.00;8.70;;;;;;;-2.06;84.97;98936.63;105660;1280;137580;-72
2022/03/08 04:38:51;;;;;;;19.00;11.30;;;;;;;-2.07;84.95;98939.36;105761;1280;24259;-73
2022/03/08 04:41:20;;;;;;;21.00;8.50;;;;;;;-2.07;84.96;98938.85;105720;1280;138251;-72
2022/03/08 04:43:46;;;;;;;16.50;10.40;;;;;;;-2.06;85.13;98937.83;105747;1280;23063;-72
2022/03/08 04:46:13;;;;;;;16.70;8.60;;;;;;;-2.03;85.14;98941.48;105792;1280;22552;-72
2022/03/08 04:48:39;;;;;;;16.40;8.60;;;;;;;-2.00;85.28;98943.52;105848;1280;138323;-72
2022/03/08 04:51:05;;;;;;;14.80;8.20;;;;;;;-1.99;85.08;98941.80;106178;1280;22569;-72
2022/03/08 04:53:31;;;;;;;13.20;7.30;;;;;;;-2.00;85.11;98941.46;105695;1280;137857;-72
2022/03/08 04:55:58;;;;;;;16.80;9.40;;;;;;;-1.96;84.96;98946.27;105901;1280;23023;-72
2022/03/08 04:58:24;;;;;;;18.70;10.10;;;;;;;-1.94;85.07;98949.26;106113;1280;22718;-72
2022/03/08 05:00:51;;;;;;;17.70;9.20;;;;;;;-1.90;84.90;98946.61;105757;1280;138538;-72
2022/03/08 05:03:17;;;;;;;20.30;10.00;;;;;;;-1.83;84.78;98948.52;105989;1280;24347;-72
2022/03/08 05:05:43;;;;;;;14.40;7.10;;;;;;;-1.78;84.69;98951.73;105766;1280;137655;-72
2022/03/08 05:08:10;;;;;;;14.60;8.10;;;;;;;-1.75;84.64;98950.89;105881;1279;24341;-72
2022/03/08 05:10:36;;;;;;;20.60;10.80;;;;;;;-1.74;84.44;98948.86;105993;1280;22720;-72
2022/03/08 05:13:03;;;;;;;22.80;10.50;;;;;;;-1.72;84.56;98953.88;105817;1280;138235;-72
2022/03/08 05:15:30;;;;;;;19.60;10.40;;;;;;;-1.71;84.28;98953.77;105885;1280;22582;-73
2022/03/08 05:17:56;;;;;;;19.80;10.90;;;;;;;-1.68;84.37;98958.14;105828;1280;138563;-72
2022/03/08 05:20:23;;;;;;;20.40;9.30;;;;;;;-1.66;84.32;98955.99;105822;1278;24341;-72
2022/03/08 05:22:52;;;;;;;19.40;10.10;;;;;;;-1.65;84.06;98958.27;105753;1280;22709;-72
2022/03/08 05:25:18;;;;;;;18.40;10.60;;;;;;;-1.64;83.86;98959.29;105867;1281;138171;-72
2022/03/08 05:27:44;;;;;;;23.40;10.00;;;;;;;-1.64;84.04;98964.06;105846;1280;25270;-72
2022/03/08 05:30:12;;;;;;;23.90;11.20;;;;;;;-1.64;83.83;98963.25;105736;1280;138430;-72
2022/03/08 05:32:38;;;;;;;20.30;10.90;;;;;;;-1.63;83.71;98967.91;105757;1280;24262;-72
2022/03/08 05:35:06;;;;;;;21.50;11.40;;;;;;;-1.60;83.67;98970.08;105628;1280;138263;-72
2022/03/08 05:37:33;;;;;;;17.70;10.50;;;;;;;-1.56;83.62;98974.84;105851;1280;22557;-72
2022/03/08 05:39:59;;;;;;;18.00;9.90;;;;;;;-1.53;83.39;98973.68;105777;1280;25337;-72
2022/03/08 05:42:26;;;;;;;24.80;11.30;;;;;;;-1.51;83.51;98975.48;105582;1280;137882;-72
2022/03/08 05:44:52;;;;;;;29.80;14.10;;;;;;;-1.49;83.48;98983.25;105628;1280;22659;-74
2022/03/08 05:47:18;;;;;;;29.40;14.90;;;;;;;-1.46;83.56;98985.61;105608;1280;139016;-72
2022/03/08 05:49:44;;;;;;;26.30;14.50;;;;;;;-1.41;83.44;98992.79;105921;1280;22554;-72
2022/03/08 05:52:11;;;;;;;23.70;13.10;;;;;;;-1.36;83.24;98992.83;105878;1280;23711;-72
2022/03/08 05:54:37;;;;;;;22.20;12.30;;;;;;;-1.32;83.38;98994.39;105643;1280;137629;-73
2022/03/08 05:57:04;;;;;;;22.20;11.70;;;;;;;-1.27;83.37;98993.69;105729;1280;22728;-72
2022/03/08 05:59:30;;;;;;;27.80;14.40;;;;;;;-1.21;83.39;98990.42;105844;1279;137957;-72
2022/03/08 06:01:56;;;;;;;26.40;13.90;;;;;;;-1.18;83.15;98993.42;105851;1280;25348;-72
2022/03/08 06:04:23;;;;;;;28.90;13.10;;;;;;;-1.14;83.18;98991.64;105759;1280;22557;-72
2022/03/08 06:06:50;;;;;;;25.40;12.80;;;;;;;-1.11;83.01;98991.55;105993;1280;138962;-72
2022/03/08 06:09:17;;;;;;;21.10;13.20;;;;;;;-1.08;83.01;98989.41;105830;1280;25268;-72
2022/03/08 06:11:43;;;;;;;25.50;12.70;;;;;;;-1.03;82.87;98989.65;105691;1280;137809;-72
2022/03/08 06:14:09;;;;;;;24.00;13.50;;;;;;;-0.99;82.89;98990.48;105759;1280;24208;-72
2022/03/08 06:16:35;;;;;;;25.30;12.40;;;;;;;-0.96;82.80;98988.05;105829;1280;25359;-72
2022/03/08 06:19:02;;;;;;;24.80;13.10;;;;;;;-0.94;82.90;98989.44;105678;1280;138324;-73
2022/03/08 06:21:43;;;;;;;23.20;12.70;;;;;;;-0.93;82.47;98995.35;105953;1279;24372;-73
2022/03/08 06:24:11;;;;;;;23.90;12.90;;;;;;;-0.93;82.45;99000.34;105827;1280;138914;-74
2022/03/08 06:26:38;;;;;;;24.10;12.60;;;;;;;-0.92;82.39;99005.29;105951;1280;22563;-72
2022/03/08 06:29:07;;;;;;;26.70;12.30;;;;;;;-0.93;82.22;99009.29;106031;1280;138699;-73
2022/03/08 06:31:33;;;;;;;19.50;12.10;;;;;;;-0.91;82.31;99005.58;106012;1280;23073;-73
2022/03/08 06:33:59;;;;;;;26.40;11.00;;;;;;;-0.93;82.23;99014.14;106092;1280;23315;-72
2022/03/08 06:36:25;;;;;;;22.60;12.00;;;;;;;-1.00;82.23;99013.55;105833;1280;138078;-72
2022/03/08 06:38:52;;;;;;;30.80;14.20;;;;;;;-1.06;82.54;99011.20;105882;1283;23373;-72
2022/03/08 06:41:18;;;;;;;25.80;13.90;;;;;;;-1.10;82.99;99011.52;105859;1280;139479;-73
2022/03/08 06:43:44;;;;;;;27.40;13.40;;;;;;;-1.16;83.47;99011.55;105828;1280;23991;-73
2022/03/08 06:46:11;;;;;;;36.50;16.00;;;;;;;-1.17;83.57;99010.83;105918;1280;23073;-72
2022/03/08 06:48:39;;;;;;;32.20;16.10;;;;;;;-1.17;83.74;99012.23;105956;1280;138148;-73
2022/03/08 06:51:05;;;;;;;30.20;14.70;;;;;;;-1.15;84.08;99012.92;106019;1280;22623;-73
2022/03/08 06:53:31;;;;;;;29.20;13.60;;;;;;;-1.13;83.88;99013.13;106003;1280;138583;-73
2022/03/08 06:55:58;;;;;;;37.00;17.00;;;;;;;-1.12;84.03;99009.80;106370;1280;22563;-73
2022/03/08 06:58:25;;;;;;;37.00;19.20;;;;;;;-1.10;84.22;99013.85;106226;1280;23352;-73
2022/03/08 07:00:51;;;;;;;28.80;15.20;;;;;;;-1.06;84.06;99014.68;105803;1279;139006;-73
2022/03/08 07:03:17;;;;;;;30.60;15.80;;;;;;;-1.02;84.30;99013.91;106049;1281;25285;-73
2022/03/08 07:05:46;;;;;;;35.80;18.90;;;;;;;-0.99;84.40;99008.80;105841;1280;138072;-74
2022/03/08 07:08:27;;;;;;;37.90;19.20;;;;;;;-0.94;84.48;99004.77;105932;1281;22554;-74
2022/03/08 07:10:53;;;;;;;40.50;18.10;;;;;;;-0.88;84.58;99000.86;106068;1280;25398;-74
2022/03/08 07:13:19;;;;;;;38.90;18.60;;;;;;;-0.81;84.35;99007.89;105752;1281;138021;-74
2022/03/08 07:15:45;;;;;;;33.90;16.50;;;;;;;-0.79;84.15;98997.27;106123;1279;23191;-74
2022/03/08 07:18:12;;;;;;;29.00;14.70;;;;;;;-0.74;83.99;98996.33;105742;1280;137695;-74
2022/03/08 07:20:38;;;;;;;38.80;17.60;;;;;;;-0.73;83.64;99001.74;105932;1280;25533;-74
2022/03/08 07:23:04;;;;;;;32.50;17.40;;;;;;;-0.73;83.45;99000.11;105967;1280;138569;-74
2022/03/08 07:25:31;;;;;;;34.40;15.50;;;;;;;-0.70;83.70;98996.75;106188;1280;22586;-74
2022/03/08 07:27:57;;;;;;;30.10;15.30;;;;;;;-0.67;83.59;98996.94;105995;1280;24289;-74
2022/03/08 07:30:24;;;;;;;42.20;21.40;;;;;;;-0.65;83.77;98996.05;105954;1280;137842;-74
2022/03/08 07:32:51;;;;;;;37.20;19.50;;;;;;;-0.60;83.86;98999.45;106136;1280;22620;-74
2022/03/08 07:35:17;;;;;;;34.00;16.10;;;;;;;-0.54;83.30;99005.65;106096;1280;138175;-73
2022/03/08 07:37:44;;;;;;;40.10;19.40;;;;;;;-0.50;83.00;99006.84;106134;1280;25266;-74
2022/03/08 07:40:11;;;;;;;38.90;18.30;;;;;;;-0.47;83.25;99008.45;105961;1280;25270;-74
2022/03/08 07:42:37;;;;;;;43.40;19.40;;;;;;;-0.41;83.23;99010.10;106163;1280;137735;-74
2022/03/08 07:45:04;;;;;;;38.30;18.40;;;;;;;-0.36;82.95;99010.70;106161;1279;22684;-74
2022/03/08 07:47:31;;;;;;;34.20;16.20;;;;;;;-0.34;82.64;99012.13;105955;1280;138490;-74
2022/03/08 07:49:57;;;;;;;38.20;17.80;;;;;;;-0.30;82.59;99014.39;106047;1281;22576;-73
2022/03/08 07:52:24;;;;;;;26.60;13.50;;;;;;;-0.24;82.57;99014.97;105897;1280;22581;-73
2022/03/08 07:54:50;;;;;;;39.00;17.00;;;;;;;-0.21;82.12;99014.82;105888;1280;138248;-73
2022/03/08 07:57:16;;;;;;;34.70;17.20;;;;;;;-0.19;82.36;99013.02;106271;1280;23189;-73
2022/03/08 07:59:43;;;;;;;34.40;15.80;;;;;;;-0.16;81.81;99018.25;106030;1280;138198;-73
2022/03/08 08:02:09;;;;;;;31.90;16.00;;;;;;;-0.13;82.01;99015.64;106068;1280;22589;-73
2022/03/08 08:04:35;;;;;;;28.20;12.40;;;;;;;-0.06;81.83;99022.21;106394;1280;24405;-74
2022/03/08 08:07:02;;;;;;;25.70;12.80;;;;;;;-0.05;81.07;99022.59;105788;1280;138240;-74
2022/03/08 08:09:29;;;;;;;30.40;13.50;;;;;;;-0.04;81.05;99017.51;106000;1279;22731;-73
2022/03/08 08:11:55;;;;;;;29.90;14.80;;;;;;;0.00;81.28;99015.65;105963;1280;138209;-74
2022/03/08 08:14:22;;;;;;;26.20;12.40;;;;;;;0.05;81.05;99018.67;106206;1280;25314;-75
2022/03/08 08:16:48;;;;;;;23.40;11.90;;;;;;;0.11;80.85;99020.66;106033;1280;23167;-74
2022/03/08 08:19:14;;;;;;;21.90;10.90;;;;;;;0.16;80.28;99022.52;106104;1279;137383;-73
2022/03/08 08:21:40;;;;;;;23.30;10.90;;;;;;;0.19;79.92;99025.90;106028;1279;22666;-74
2022/03/08 08:24:07;;;;;;;21.30;10.80;;;;;;;0.24;79.59;99028.63;105962;1279;137560;-74
2022/03/08 08:26:33;;;;;;;23.70;11.00;;;;;;;0.30;79.45;99031.92;106096;1280;22852;-75
2022/03/08 08:29:00;;;;;;;21.80;10.80;;;;;;;0.40;79.14;99031.94;105829;1280;138699;-74
2022/03/08 08:31:28;;;;;;;17.10;8.50;;;;;;;0.51;78.47;99037.17;105892;1280;24331;-74
2022/03/08 08:33:55;;;;;;;22.90;10.00;;;;;;;0.59;78.22;99043.23;105950;1280;22572;-74
2022/03/08 08:36:22;;;;;;;16.00;9.30;;;;;;;0.64;77.76;99047.06;106037;1280;137949;-74
2022/03/08 08:38:48;;;;;;;22.30;11.20;;;;;;;0.63;77.29;99046.09;105844;1280;22592;-73
2022/03/08 08:41:14;;;;;;;18.20;9.90;;;;;;;0.61;77.24;99046.23;105869;1280;138113;-73
2022/03/08 08:43:41;;;;;;;17.10;10.60;;;;;;;0.60;77.09;99046.96;106424;1280;22593;-73
2022/03/08 08:46:07;;;;;;;31.00;8.10;;;;;;;0.59;76.95;99049.77;107199;1280;22598;-72
2022/03/08 08:48:35;;;;;;;17.90;9.30;;;;;;;0.54;76.89;99049.64;106186;1280;137366;-72
2022/03/08 08:51:01;;;;;;;21.00;10.00;;;;;;;0.53;76.88;99055.35;106156;1280;22566;-72
2022/03/08 08:53:28;;;;;;;20.50;9.60;;;;;;;0.53;77.52;99058.88;106686;1280;138412;-72
2022/03/08 08:55:54;;;;;;;18.50;9.60;;;;;;;0.55;76.75;99055.99;106157;1280;22708;-72
2022/03/08 08:58:21;;;;;;;19.20;9.90;;;;;;;0.53;76.44;99057.50;106523;1280;22804;-72
2022/03/08 09:00:47;;;;;;;21.20;10.90;;;;;;;0.48;76.17;99058.70;106008;1280;137741;-73
2022/03/08 09:03:16;;;;;;;20.60;11.00;;;;;;;0.51;76.87;99062.45;106467;1280;22580;-73
2022/03/08 09:05:47;;;;;;;21.00;10.00;;;;;;;0.64;77.06;99060.09;106317;1280;138987;-73
2022/03/08 09:08:14;;;;;;;20.50;10.00;;;;;;;0.76;76.75;99062.71;106512;1280;22592;-73
2022/03/08 09:10:41;;;;;;;19.30;9.60;;;;;;;0.85;77.28;99059.70;106335;1280;22563;-74
2022/03/08 09:13:07;;;;;;;20.30;8.90;;;;;;;0.95;76.82;99063.79;105919;1280;137246;-74
2022/03/08 09:15:35;;;;;;;19.70;10.40;;;;;;;1.04;75.50;99063.81;105410;1280;456908;-74
2022/03/08 09:18:05;;;;;;;16.40;9.80;;;;;;;1.16;75.47;99058.10;105996;1280;138461;-75
2022/03/08 09:20:32;;;;;;;19.80;10.20;;;;;;;1.38;75.80;99051.16;105820;1280;22571;-74
2022/03/08 09:22:59;;;;;;;21.70;11.70;;;;;;;1.60;74.99;99050.93;105974;1280;22572;-74
2022/03/08 09:25:26;;;;;;;23.40;11.30;;;;;;;1.71;74.01;99055.41;105942;1280;137404;-74
2022/03/08 09:27:53;;;;;;;19.00;10.60;;;;;;;1.70;73.35;99059.33;106027;1280;22563;-74
2022/03/08 09:30:20;;;;;;;16.70;9.10;;;;;;;1.68;72.87;99055.16;105801;1280;138148;-74
2022/03/08 09:32:46;;;;;;;20.30;9.30;;;;;;;1.72;72.84;99054.24;106009;1280;22576;-75
2022/03/08 09:35:15;;;;;;;16.10;9.20;;;;;;;1.73;71.88;99054.28;106044;1279;138112;-74
2022/03/08 09:37:41;;;;;;;16.20;8.90;;;;;;;1.69;71.62;99054.89;105835;1280;22548;-74
2022/03/08 09:40:09;;;;;;;19.30;9.10;;;;;;;1.61;71.41;99053.27;106035;1280;24332;-74
2022/03/08 09:42:36;;;;;;;17.70;8.80;;;;;;;1.60;72.32;99054.86;105950;1280;137351;-75
2022/03/08 09:45:03;;;;;;;19.00;9.50;;;;;;;1.63;72.13;99051.66;105915;1280;23077;-74
2022/03/08 09:47:29;;;;;;;14.20;8.90;;;;;;;1.66;71.83;99058.96;106338;1279;138013;-75
2022/03/08 09:49:56;;;;;;;14.30;8.40;;;;;;;1.71;71.26;99061.09;105922;1280;22606;-75
2022/03/08 09:52:22;;;;;;;18.20;9.10;;;;;;;1.75;71.02;99058.70;106009;1280;25405;-75
2022/03/08 09:54:49;;;;;;;14.10;8.60;;;;;;;1.82;71.15;99054.55;105806;1280;137448;-75
2022/03/08 09:57:18;;;;;;;19.50;9.20;;;;;;;1.91;71.48;99052.58;106746;1280;22676;-74
2022/03/08 09:59:44;;;;;;;;;;;;;;;2.01;70.05;99043.80;106729;1280;137740;-74
2022/03/08 10:02:15;;;;;;;10.50;5.80;;;;;;;2.03;69.05;99048.77;106401;1280;23377;-74
2022/03/08 10:05:00;;;;;;;12.10;6.60;;;;;;;2.01;68.88;99044.48;106428;1280;25265;-75
2022/03/08 10:07:26;;;;;;;12.60;7.80;;;;;;;2.01;68.82;99050.73;106079;1280;137123;-76
2022/03/08 10:10:00;;;;;;;13.30;7.60;;;;;;;2.11;68.62;99050.35;105882;1280;24380;-75
2022/03/08 10:12:27;;;;;;;14.80;7.10;;;;;;;2.23;68.75;99044.61;106031;1280;138178;-75
2022/03/08 10:14:54;;;;;;;12.70;7.30;;;;;;;2.33;68.07;99042.30;105932;1280;25279;-75
2022/03/08 10:17:36;;;;;;;14.60;7.90;;;;;;;2.43;68.08;99050.40;105759;1280;137722;-75
2022/03/08 10:20:08;;;;;;;12.20;6.70;;;;;;;2.43;67.18;99053.63;105942;1280;22548;-75
2022/03/08 10:22:41;;;;;;;11.20;6.70;;;;;;;2.43;66.78;99052.05;106195;1280;25346;-76
2022/03/08 10:25:17;;;;;;;14.60;6.70;;;;;;;2.51;67.48;99051.45;105910;1280;137527;-76
2022/03/08 10:27:56;;;;;;;15.50;7.10;;;;;;;2.67;66.44;99058.77;105992;1280;23942;-76
2022/03/08 10:30:25;;;;;;;12.80;7.80;;;;;;;2.76;65.99;99052.28;105793;1280;137826;-76
2022/03/08 10:32:59;;;;;;;14.70;8.20;;;;;;;2.92;66.30;99049.34;106149;1280;22561;-76
2022/03/08 10:35:29;;;;;;;15.10;7.40;;;;;;;3.11;66.29;99042.27;105818;1280;137745;-76
2022/03/08 10:38:04;;;;;;;13.40;7.50;;;;;;;3.17;65.70;99035.11;105881;1280;25265;-76
2022/03/08 10:40:32;;;;;;;13.80;8.50;;;;;;;3.19;66.23;99034.08;106066;1280;25383;-76
2022/03/08 10:43:16;;;;;;;10.70;6.60;;;;;;;3.18;65.38;99034.88;105682;1280;137586;-76
2022/03/08 10:45:45;;;;;;;11.90;7.10;;;;;;;3.23;64.02;99034.88;105803;1280;24368;-76
2022/03/08 10:48:14;;;;;;;14.10;7.60;;;;;;;3.40;64.57;99031.70;105900;1280;137512;-76
2022/03/08 10:50:42;;;;;;;12.00;8.50;;;;;;;3.59;64.92;99027.00;105992;1280;25452;-76
2022/03/08 10:53:11;;;;;;;16.10;7.80;;;;;;;3.63;64.39;99022.73;105850;1279;137615;-76
2022/03/08 10:55:45;;;;;;;13.20;6.90;;;;;;;3.56;63.82;99017.35;106085;1280;24273;-76
2022/03/08 10:58:13;;;;;;;12.50;6.70;;;;;;;3.45;63.25;99022.48;105903;1280;22563;-76
2022/03/08 11:00:53;;;;;;;12.80;7.10;;;;;;;3.32;63.05;99020.67;105886;1280;137849;-76
2022/03/08 11:03:21;;;;;;;9.30;6.00;;;;;;;3.28;63.83;99020.04;105874;1280;23899;-76
2022/03/08 11:05:52;;;;;;;9.80;5.50;;;;;;;3.20;62.31;99018.52;106092;1280;137696;-76
2022/03/08 11:08:18;;;;;;;11.20;6.40;;;;;;;3.10;62.51;99015.14;105949;1280;24510;-77
2022/03/08 11:10:46;;;;;;;15.70;6.70;;;;;;;3.09;62.99;99010.80;105996;1280;22635;-77
2022/03/08 11:13:15;;;;;;;10.90;5.20;;;;;;;3.10;61.52;99007.80;105793;1280;137453;-77